sensor_id;sensor_type;location;lat;lon;timestamp;P1;durP1;ratioP1;P2;durP2;ratioP2
30647;SDS011;17683;53.360;9.736;2023-01-05T00:01:05;12.35;;;3.17;;
30647;SDS011;17683;53.360;9.736;2023-01-05T00:03:33;13.13;;;3.05;;
30647;SDS011;17683;53.360;9.736;2023-01-05T00:06:07;19.90;;;3.25;;
30647;SDS011;17683;53.360;9.736;2023-01-05T00:08:36;12.20;;;2.65;;
30647;SDS011;17683;53.360;9.736;2023-01-05T00:11:21;12.35;;;3.17;;
30647;SDS011;17683;53.360;9.736;2023-01-05T00:14:08;9.97;;;2.30;;
30647;SDS011;17683;53.360;9.736;2023-01-05T00:16:56;11.55;;;2.60;;
30647;SDS011;17683;53.360;9.736;2023-01-05T00:19:40;20.95;;;3.78;;
30647;SDS011;17683;53.360;9.736;2023-01-05T00:22:25;14.20;;;2.83;;
30647;SDS011;17683;53.360;9.736;2023-01-05T00:24:54;7.65;;;2.28;;
30647;SDS011;17683;53.360;9.736;2023-01-05T00:27:24;14.90;;;3.28;;
30647;SDS011;17683;53.360;9.736;2023-01-05T00:29:50;16.15;;;3.05;;
30647;SDS011;17683;53.360;9.736;2023-01-05T00:32:16;13.85;;;2.60;;
30647;SDS011;17683;53.360;9.736;2023-01-05T00:34:41;14.38;;;2.22;;
30647;SDS011;17683;53.360;9.736;2023-01-05T00:37:07;15.07;;;3.25;;
30647;SDS011;17683;53.360;9.736;2023-01-05T00:39:33;12.55;;;2.70;;
30647;SDS011;17683;53.360;9.736;2023-01-05T00:41:58;11.77;;;2.45;;
30647;SDS011;17683;53.360;9.736;2023-01-05T00:44:24;14.13;;;2.72;;
30647;SDS011;17683;53.360;9.736;2023-01-05T00:46:50;13.85;;;2.60;;
30647;SDS011;17683;53.360;9.736;2023-01-05T00:49:15;8.88;;;2.15;;
30647;SDS011;17683;53.360;9.736;2023-01-05T00:51:41;14.35;;;2.85;;
30647;SDS011;17683;53.360;9.736;2023-01-05T00:54:07;17.95;;;3.35;;
30647;SDS011;17683;53.360;9.736;2023-01-05T00:56:33;11.98;;;2.45;;
30647;SDS011;17683;53.360;9.736;2023-01-05T00:58:58;16.73;;;3.03;;
30647;SDS011;17683;53.360;9.736;2023-01-05T01:01:24;11.55;;;2.67;;
30647;SDS011;17683;53.360;9.736;2023-01-05T01:03:50;21.77;;;3.17;;
30647;SDS011;17683;53.360;9.736;2023-01-05T01:06:23;13.90;;;2.35;;
30647;SDS011;17683;53.360;9.736;2023-01-05T01:08:49;15.10;;;3.10;;
30647;SDS011;17683;53.360;9.736;2023-01-05T01:11:15;14.20;;;2.28;;
30647;SDS011;17683;53.360;9.736;2023-01-05T01:13:44;13.50;;;4.30;;
30647;SDS011;17683;53.360;9.736;2023-01-05T01:16:11;12.88;;;2.42;;
30647;SDS011;17683;53.360;9.736;2023-01-05T01:18:39;14.80;;;2.50;;
30647;SDS011;17683;53.360;9.736;2023-01-05T01:21:05;9.90;;;2.47;;
30647;SDS011;17683;53.360;9.736;2023-01-05T01:23:31;10.30;;;2.20;;
30647;SDS011;17683;53.360;9.736;2023-01-05T01:25:58;10.18;;;2.38;;
30647;SDS011;17683;53.360;9.736;2023-01-05T01:28:28;10.95;;;2.38;;
30647;SDS011;17683;53.360;9.736;2023-01-05T01:30:55;9.98;;;2.45;;
30647;SDS011;17683;53.360;9.736;2023-01-05T01:33:21;13.48;;;2.53;;
30647;SDS011;17683;53.360;9.736;2023-01-05T01:35:47;8.75;;;2.10;;
30647;SDS011;17683;53.360;9.736;2023-01-05T01:38:12;13.98;;;2.50;;
30647;SDS011;17683;53.360;9.736;2023-01-05T01:40:39;6.88;;;2.00;;
30647;SDS011;17683;53.360;9.736;2023-01-05T01:43:20;14.35;;;3.38;;
30647;SDS011;17683;53.360;9.736;2023-01-05T01:46:06;6.68;;;1.60;;
30647;SDS011;17683;53.360;9.736;2023-01-05T01:48:33;4.47;;;1.15;;
30647;SDS011;17683;53.360;9.736;2023-01-05T01:51:04;8.43;;;1.08;;
30647;SDS011;17683;53.360;9.736;2023-01-05T01:56:03;8.38;;;1.85;;
30647;SDS011;17683;53.360;9.736;2023-01-05T01:58:31;5.60;;;1.17;;
30647;SDS011;17683;53.360;9.736;2023-01-05T02:00:58;4.93;;;1.40;;
30647;SDS011;17683;53.360;9.736;2023-01-05T02:03:27;6.75;;;1.42;;
30647;SDS011;17683;53.360;9.736;2023-01-05T02:05:54;6.78;;;1.88;;
30647;SDS011;17683;53.360;9.736;2023-01-05T02:08:20;8.68;;;2.10;;
30647;SDS011;17683;53.360;9.736;2023-01-05T02:25:36;6.38;;;1.90;;
30647;SDS011;17683;53.360;9.736;2023-01-05T02:31:26;9.38;;;2.20;;
30647;SDS011;17683;53.360;9.736;2023-01-05T02:36:52;7.15;;;2.08;;
30647;SDS011;17683;53.360;9.736;2023-01-05T02:39:27;7.75;;;1.98;;
30647;SDS011;17683;53.360;9.736;2023-01-05T02:42:04;6.78;;;1.67;;
30647;SDS011;17683;53.360;9.736;2023-01-05T02:44:40;5.20;;;1.85;;
30647;SDS011;17683;53.360;9.736;2023-01-05T02:47:31;3.80;;;0.98;;
30647;SDS011;17683;53.360;9.736;2023-01-05T02:49:56;5.70;;;1.30;;
30647;SDS011;17683;53.360;9.736;2023-01-05T02:52:56;3.58;;;0.82;;
30647;SDS011;17683;53.360;9.736;2023-01-05T02:55:51;3.70;;;1.23;;
30647;SDS011;17683;53.360;9.736;2023-01-05T02:58:41;5.13;;;1.25;;
30647;SDS011;17683;53.360;9.736;2023-01-05T03:03:44;6.40;;;1.73;;
30647;SDS011;17683;53.360;9.736;2023-01-05T03:06:31;13.63;;;1.70;;
30647;SDS011;17683;53.360;9.736;2023-01-05T03:09:03;8.65;;;1.42;;
30647;SDS011;17683;53.360;9.736;2023-01-05T03:11:43;8.70;;;1.83;;
30647;SDS011;17683;53.360;9.736;2023-01-05T03:14:51;6.57;;;1.23;;
30647;SDS011;17683;53.360;9.736;2023-01-05T03:17:40;8.52;;;1.40;;
30647;SDS011;17683;53.360;9.736;2023-01-05T03:20:11;5.35;;;1.08;;
30647;SDS011;17683;53.360;9.736;2023-01-05T03:22:39;6.80;;;1.52;;
30647;SDS011;17683;53.360;9.736;2023-01-05T03:25:27;5.72;;;1.25;;
30647;SDS011;17683;53.360;9.736;2023-01-05T03:28:14;8.35;;;1.45;;
30647;SDS011;17683;53.360;9.736;2023-01-05T03:31:03;3.17;;;0.80;;
30647;SDS011;17683;53.360;9.736;2023-01-05T03:36:51;4.07;;;1.10;;
30647;SDS011;17683;53.360;9.736;2023-01-05T03:39:22;1.88;;;0.95;;
30647;SDS011;17683;53.360;9.736;2023-01-05T03:41:53;4.35;;;0.88;;
30647;SDS011;17683;53.360;9.736;2023-01-05T03:44:19;4.18;;;0.80;;
30647;SDS011;17683;53.360;9.736;2023-01-05T03:46:45;3.47;;;0.57;;
30647;SDS011;17683;53.360;9.736;2023-01-05T03:49:11;2.10;;;0.45;;
30647;SDS011;17683;53.360;9.736;2023-01-05T03:51:37;3.10;;;0.70;;
30647;SDS011;17683;53.360;9.736;2023-01-05T03:54:03;1.60;;;0.65;;
30647;SDS011;17683;53.360;9.736;2023-01-05T03:56:29;2.78;;;0.57;;
30647;SDS011;17683;53.360;9.736;2023-01-05T03:58:54;2.17;;;0.95;;
30647;SDS011;17683;53.360;9.736;2023-01-05T04:01:20;2.92;;;0.30;;
30647;SDS011;17683;53.360;9.736;2023-01-05T04:03:46;1.05;;;0.38;;
30647;SDS011;17683;53.360;9.736;2023-01-05T04:06:12;1.10;;;0.50;;
30647;SDS011;17683;53.360;9.736;2023-01-05T04:08:37;0.63;;;0.43;;
30647;SDS011;17683;53.360;9.736;2023-01-05T04:11:36;4.53;;;0.52;;
30647;SDS011;17683;53.360;9.736;2023-01-05T04:13:55;1.77;;;0.50;;
30647;SDS011;17683;53.360;9.736;2023-01-05T04:16:21;3.85;;;0.60;;
30647;SDS011;17683;53.360;9.736;2023-01-05T04:18:47;0.93;;;0.50;;
30647;SDS011;17683;53.360;9.736;2023-01-05T04:21:12;2.42;;;1.02;;
30647;SDS011;17683;53.360;9.736;2023-01-05T04:23:38;1.17;;;0.50;;
30647;SDS011;17683;53.360;9.736;2023-01-05T04:26:04;2.90;;;0.50;;
30647;SDS011;17683;53.360;9.736;2023-01-05T04:28:30;2.63;;;0.68;;
30647;SDS011;17683;53.360;9.736;2023-01-05T04:30:55;4.35;;;0.52;;
30647;SDS011;17683;53.360;9.736;2023-01-05T04:33:22;1.13;;;0.47;;
30647;SDS011;17683;53.360;9.736;2023-01-05T04:35:48;2.58;;;0.50;;
30647;SDS011;17683;53.360;9.736;2023-01-05T04:38:14;1.15;;;0.40;;
30647;SDS011;17683;53.360;9.736;2023-01-05T04:40:40;2.28;;;0.40;;
30647;SDS011;17683;53.360;9.736;2023-01-05T04:43:05;1.75;;;0.43;;
30647;SDS011;17683;53.360;9.736;2023-01-05T04:45:32;2.38;;;0.40;;
30647;SDS011;17683;53.360;9.736;2023-01-05T04:47:58;0.70;;;0.20;;
30647;SDS011;17683;53.360;9.736;2023-01-05T04:50:24;1.17;;;0.40;;
30647;SDS011;17683;53.360;9.736;2023-01-05T04:52:51;1.88;;;0.65;;
30647;SDS011;17683;53.360;9.736;2023-01-05T04:55:17;2.78;;;0.50;;
30647;SDS011;17683;53.360;9.736;2023-01-05T04:57:42;0.80;;;0.50;;
30647;SDS011;17683;53.360;9.736;2023-01-05T05:00:08;1.65;;;0.50;;
30647;SDS011;17683;53.360;9.736;2023-01-05T05:02:35;4.22;;;1.20;;
30647;SDS011;17683;53.360;9.736;2023-01-05T05:05:01;2.33;;;0.70;;
30647;SDS011;17683;53.360;9.736;2023-01-05T05:07:27;3.83;;;0.70;;
30647;SDS011;17683;53.360;9.736;2023-01-05T05:09:53;4.05;;;0.50;;
30647;SDS011;17683;53.360;9.736;2023-01-05T05:12:18;3.67;;;1.23;;
30647;SDS011;17683;53.360;9.736;2023-01-05T05:14:47;1.08;;;0.55;;
30647;SDS011;17683;53.360;9.736;2023-01-05T05:17:13;2.90;;;0.85;;
30647;SDS011;17683;53.360;9.736;2023-01-05T05:19:40;5.80;;;0.73;;
30647;SDS011;17683;53.360;9.736;2023-01-05T05:22:06;2.58;;;0.93;;
30647;SDS011;17683;53.360;9.736;2023-01-05T05:24:32;4.15;;;0.65;;
30647;SDS011;17683;53.360;9.736;2023-01-05T05:26:57;1.73;;;0.60;;
30647;SDS011;17683;53.360;9.736;2023-01-05T05:29:23;2.03;;;0.52;;
30647;SDS011;17683;53.360;9.736;2023-01-05T05:31:49;2.65;;;0.57;;
30647;SDS011;17683;53.360;9.736;2023-01-05T05:34:16;3.65;;;0.65;;
30647;SDS011;17683;53.360;9.736;2023-01-05T05:36:42;2.78;;;0.50;;
30647;SDS011;17683;53.360;9.736;2023-01-05T05:39:10;3.17;;;0.57;;
30647;SDS011;17683;53.360;9.736;2023-01-05T05:41:37;3.17;;;0.43;;
30647;SDS011;17683;53.360;9.736;2023-01-05T05:44:02;2.92;;;0.75;;
30647;SDS011;17683;53.360;9.736;2023-01-05T05:46:28;4.97;;;0.50;;
30647;SDS011;17683;53.360;9.736;2023-01-05T05:48:55;3.92;;;0.82;;
30647;SDS011;17683;53.360;9.736;2023-01-05T05:51:22;1.98;;;0.95;;
30647;SDS011;17683;53.360;9.736;2023-01-05T05:53:48;4.28;;;0.68;;
30647;SDS011;17683;53.360;9.736;2023-01-05T05:56:14;4.88;;;0.80;;
30647;SDS011;17683;53.360;9.736;2023-01-05T05:58:40;4.55;;;0.98;;
30647;SDS011;17683;53.360;9.736;2023-01-05T06:01:06;7.05;;;0.90;;
30647;SDS011;17683;53.360;9.736;2023-01-05T06:03:32;3.08;;;0.70;;
30647;SDS011;17683;53.360;9.736;2023-01-05T06:05:57;8.13;;;1.35;;
30647;SDS011;17683;53.360;9.736;2023-01-05T06:08:23;6.30;;;1.58;;
30647;SDS011;17683;53.360;9.736;2023-01-05T06:10:51;13.27;;;2.05;;
30647;SDS011;17683;53.360;9.736;2023-01-05T06:13:17;5.60;;;1.20;;
30647;SDS011;17683;53.360;9.736;2023-01-05T06:15:43;8.55;;;1.52;;
30647;SDS011;17683;53.360;9.736;2023-01-05T06:18:08;4.53;;;1.30;;
30647;SDS011;17683;53.360;9.736;2023-01-05T06:20:34;8.68;;;1.45;;
30647;SDS011;17683;53.360;9.736;2023-01-05T06:23:00;5.57;;;1.33;;
30647;SDS011;17683;53.360;9.736;2023-01-05T06:25:26;6.65;;;1.13;;
30647;SDS011;17683;53.360;9.736;2023-01-05T06:27:52;7.13;;;1.40;;
30647;SDS011;17683;53.360;9.736;2023-01-05T06:30:18;9.52;;;1.48;;
30647;SDS011;17683;53.360;9.736;2023-01-05T06:32:43;7.05;;;1.90;;
30647;SDS011;17683;53.360;9.736;2023-01-05T06:35:09;9.75;;;1.65;;
30647;SDS011;17683;53.360;9.736;2023-01-05T06:37:35;7.30;;;2.08;;
30647;SDS011;17683;53.360;9.736;2023-01-05T06:40:01;6.32;;;1.27;;
30647;SDS011;17683;53.360;9.736;2023-01-05T06:42:27;9.13;;;2.38;;
30647;SDS011;17683;53.360;9.736;2023-01-05T06:44:53;9.98;;;1.77;;
30647;SDS011;17683;53.360;9.736;2023-01-05T06:47:19;11.07;;;1.75;;
30647;SDS011;17683;53.360;9.736;2023-01-05T06:49:44;4.68;;;1.30;;
30647;SDS011;17683;53.360;9.736;2023-01-05T06:52:10;10.50;;;1.48;;
30647;SDS011;17683;53.360;9.736;2023-01-05T06:54:36;11.00;;;2.22;;
30647;SDS011;17683;53.360;9.736;2023-01-05T06:57:01;5.28;;;1.42;;
30647;SDS011;17683;53.360;9.736;2023-01-05T06:59:27;8.35;;;1.73;;
30647;SDS011;17683;53.360;9.736;2023-01-05T07:01:53;7.32;;;1.40;;
30647;SDS011;17683;53.360;9.736;2023-01-05T07:04:18;8.15;;;1.85;;
30647;SDS011;17683;53.360;9.736;2023-01-05T07:06:44;6.47;;;1.98;;
30647;SDS011;17683;53.360;9.736;2023-01-05T07:09:10;11.27;;;1.95;;
30647;SDS011;17683;53.360;9.736;2023-01-05T07:11:36;11.13;;;1.90;;
30647;SDS011;17683;53.360;9.736;2023-01-05T07:14:01;7.85;;;1.30;;
30647;SDS011;17683;53.360;9.736;2023-01-05T07:16:27;10.57;;;3.22;;
30647;SDS011;17683;53.360;9.736;2023-01-05T07:18:53;13.75;;;1.83;;
30647;SDS011;17683;53.360;9.736;2023-01-05T07:21:18;10.05;;;1.42;;
30647;SDS011;17683;53.360;9.736;2023-01-05T07:23:44;11.20;;;1.90;;
30647;SDS011;17683;53.360;9.736;2023-01-05T07:26:10;12.55;;;2.70;;
30647;SDS011;17683;53.360;9.736;2023-01-05T07:28:36;10.50;;;1.80;;
30647;SDS011;17683;53.360;9.736;2023-01-05T07:31:02;16.83;;;1.83;;
30647;SDS011;17683;53.360;9.736;2023-01-05T07:33:29;16.88;;;2.15;;
30647;SDS011;17683;53.360;9.736;2023-01-05T07:35:59;13.38;;;2.53;;
30647;SDS011;17683;53.360;9.736;2023-01-05T07:38:26;10.30;;;1.80;;
30647;SDS011;17683;53.360;9.736;2023-01-05T07:40:51;10.68;;;2.25;;
30647;SDS011;17683;53.360;9.736;2023-01-05T07:43:17;13.43;;;2.25;;
30647;SDS011;17683;53.360;9.736;2023-01-05T07:45:43;13.85;;;2.05;;
30647;SDS011;17683;53.360;9.736;2023-01-05T07:48:09;11.50;;;1.90;;
30647;SDS011;17683;53.360;9.736;2023-01-05T07:50:34;11.18;;;2.20;;
30647;SDS011;17683;53.360;9.736;2023-01-05T07:53:00;10.77;;;2.33;;
30647;SDS011;17683;53.360;9.736;2023-01-05T07:55:26;12.05;;;2.10;;
30647;SDS011;17683;53.360;9.736;2023-01-05T07:57:51;15.43;;;1.92;;
30647;SDS011;17683;53.360;9.736;2023-01-05T08:00:17;9.40;;;1.67;;
30647;SDS011;17683;53.360;9.736;2023-01-05T08:02:43;13.25;;;2.80;;
30647;SDS011;17683;53.360;9.736;2023-01-05T08:05:10;15.85;;;2.33;;
30647;SDS011;17683;53.360;9.736;2023-01-05T08:07:36;8.07;;;1.48;;
30647;SDS011;17683;53.360;9.736;2023-01-05T08:10:02;12.40;;;2.00;;
30647;SDS011;17683;53.360;9.736;2023-01-05T08:12:47;17.00;;;2.45;;
30647;SDS011;17683;53.360;9.736;2023-01-05T08:15:31;9.65;;;2.33;;
30647;SDS011;17683;53.360;9.736;2023-01-05T08:17:57;13.02;;;1.90;;
30647;SDS011;17683;53.360;9.736;2023-01-05T08:20:22;9.07;;;2.00;;
30647;SDS011;17683;53.360;9.736;2023-01-05T08:22:49;13.18;;;2.75;;
30647;SDS011;17683;53.360;9.736;2023-01-05T08:25:15;8.75;;;2.05;;
30647;SDS011;17683;53.360;9.736;2023-01-05T08:27:41;11.98;;;2.38;;
30647;SDS011;17683;53.360;9.736;2023-01-05T08:30:07;15.93;;;2.38;;
30647;SDS011;17683;53.360;9.736;2023-01-05T08:32:33;12.15;;;2.33;;
30647;SDS011;17683;53.360;9.736;2023-01-05T08:34:59;15.63;;;2.47;;
30647;SDS011;17683;53.360;9.736;2023-01-05T08:37:24;16.05;;;2.75;;
30647;SDS011;17683;53.360;9.736;2023-01-05T08:39:50;11.77;;;2.85;;
30647;SDS011;17683;53.360;9.736;2023-01-05T08:42:16;11.95;;;3.13;;
30647;SDS011;17683;53.360;9.736;2023-01-05T08:44:42;17.55;;;3.00;;
30647;SDS011;17683;53.360;9.736;2023-01-05T08:47:07;11.65;;;2.08;;
30647;SDS011;17683;53.360;9.736;2023-01-05T08:49:33;19.15;;;2.95;;
30647;SDS011;17683;53.360;9.736;2023-01-05T08:51:59;9.30;;;2.05;;
30647;SDS011;17683;53.360;9.736;2023-01-05T08:54:25;25.05;;;3.42;;
30647;SDS011;17683;53.360;9.736;2023-01-05T08:56:50;13.88;;;2.10;;
30647;SDS011;17683;53.360;9.736;2023-01-05T08:59:16;19.02;;;2.38;;
30647;SDS011;17683;53.360;9.736;2023-01-05T09:01:42;23.30;;;2.95;;
30647;SDS011;17683;53.360;9.736;2023-01-05T09:04:08;8.95;;;2.10;;
30647;SDS011;17683;53.360;9.736;2023-01-05T09:06:33;14.23;;;2.92;;
30647;SDS011;17683;53.360;9.736;2023-01-05T09:08:59;12.77;;;2.47;;
30647;SDS011;17683;53.360;9.736;2023-01-05T09:11:25;14.48;;;2.70;;
30647;SDS011;17683;53.360;9.736;2023-01-05T09:13:55;14.65;;;2.47;;
30647;SDS011;17683;53.360;9.736;2023-01-05T09:16:23;10.93;;;2.15;;
30647;SDS011;17683;53.360;9.736;2023-01-05T09:18:50;14.23;;;2.78;;
30647;SDS011;17683;53.360;9.736;2023-01-05T09:21:16;13.13;;;2.50;;
30647;SDS011;17683;53.360;9.736;2023-01-05T09:23:43;19.90;;;3.30;;
30647;SDS011;17683;53.360;9.736;2023-01-05T09:26:10;19.27;;;2.85;;
30647;SDS011;17683;53.360;9.736;2023-01-05T09:28:37;23.52;;;2.78;;
30647;SDS011;17683;53.360;9.736;2023-01-05T09:33:40;16.08;;;3.45;;
30647;SDS011;17683;53.360;9.736;2023-01-05T09:36:07;14.80;;;2.50;;
30647;SDS011;17683;53.360;9.736;2023-01-05T09:38:33;17.45;;;3.03;;
30647;SDS011;17683;53.360;9.736;2023-01-05T09:41:04;19.73;;;2.58;;
30647;SDS011;17683;53.360;9.736;2023-01-05T09:43:37;14.52;;;3.15;;
30647;SDS011;17683;53.360;9.736;2023-01-05T09:46:14;15.65;;;2.88;;
30647;SDS011;17683;53.360;9.736;2023-01-05T09:48:44;15.25;;;2.72;;
30647;SDS011;17683;53.360;9.736;2023-01-05T09:51:14;16.30;;;2.70;;
30647;SDS011;17683;53.360;9.736;2023-01-05T09:53:40;10.38;;;2.25;;
30647;SDS011;17683;53.360;9.736;2023-01-05T09:56:11;14.45;;;2.38;;
30647;SDS011;17683;53.360;9.736;2023-01-05T09:58:50;20.60;;;2.38;;
30647;SDS011;17683;53.360;9.736;2023-01-05T10:01:17;17.85;;;2.40;;
30647;SDS011;17683;53.360;9.736;2023-01-05T10:03:57;18.02;;;2.75;;
30647;SDS011;17683;53.360;9.736;2023-01-05T10:06:38;15.82;;;3.40;;
30647;SDS011;17683;53.360;9.736;2023-01-05T10:09:09;14.35;;;2.35;;
30647;SDS011;17683;53.360;9.736;2023-01-05T10:14:39;18.73;;;2.72;;
30647;SDS011;17683;53.360;9.736;2023-01-05T10:17:12;18.23;;;2.40;;
30647;SDS011;17683;53.360;9.736;2023-01-05T10:19:44;16.02;;;3.17;;
30647;SDS011;17683;53.360;9.736;2023-01-05T10:22:20;15.57;;;2.78;;
30647;SDS011;17683;53.360;9.736;2023-01-05T10:24:56;22.95;;;3.65;;
30647;SDS011;17683;53.360;9.736;2023-01-05T10:28:14;15.90;;;3.40;;
30647;SDS011;17683;53.360;9.736;2023-01-05T10:30:56;12.00;;;3.45;;
30647;SDS011;17683;53.360;9.736;2023-01-05T10:42:04;15.05;;;2.88;;
30647;SDS011;17683;53.360;9.736;2023-01-05T10:47:09;28.40;;;3.63;;
30647;SDS011;17683;53.360;9.736;2023-01-05T10:49:36;16.60;;;3.38;;
30647;SDS011;17683;53.360;9.736;2023-01-05T10:52:04;19.42;;;3.75;;
30647;SDS011;17683;53.360;9.736;2023-01-05T10:54:38;22.98;;;2.92;;
30647;SDS011;17683;53.360;9.736;2023-01-05T11:02:27;16.90;;;3.53;;
30647;SDS011;17683;53.360;9.736;2023-01-05T11:05:16;18.05;;;3.38;;
30647;SDS011;17683;53.360;9.736;2023-01-05T11:07:47;20.77;;;3.10;;
30647;SDS011;17683;53.360;9.736;2023-01-05T11:10:22;14.32;;;2.58;;
30647;SDS011;17683;53.360;9.736;2023-01-05T11:12:50;18.08;;;3.40;;
30647;SDS011;17683;53.360;9.736;2023-01-05T11:15:18;21.02;;;3.92;;
30647;SDS011;17683;53.360;9.736;2023-01-05T11:17:45;24.92;;;3.70;;
30647;SDS011;17683;53.360;9.736;2023-01-05T11:20:15;12.95;;;3.20;;
30647;SDS011;17683;53.360;9.736;2023-01-05T11:22:41;23.70;;;3.00;;
30647;SDS011;17683;53.360;9.736;2023-01-05T11:27:42;14.00;;;2.30;;
30647;SDS011;17683;53.360;9.736;2023-01-05T11:32:40;11.75;;;1.95;;
30647;SDS011;17683;53.360;9.736;2023-01-05T11:35:20;19.52;;;3.17;;
30647;SDS011;17683;53.360;9.736;2023-01-05T11:37:52;18.13;;;2.53;;
30647;SDS011;17683;53.360;9.736;2023-01-05T11:40:18;18.35;;;3.28;;
30647;SDS011;17683;53.360;9.736;2023-01-05T11:42:47;12.45;;;3.13;;
30647;SDS011;17683;53.360;9.736;2023-01-05T11:45:20;16.52;;;2.80;;
30647;SDS011;17683;53.360;9.736;2023-01-05T11:47:55;14.38;;;2.65;;
30647;SDS011;17683;53.360;9.736;2023-01-05T11:50:27;19.52;;;2.40;;
30647;SDS011;17683;53.360;9.736;2023-01-05T11:52:56;19.10;;;3.80;;
30647;SDS011;17683;53.360;9.736;2023-01-05T11:58:11;15.07;;;3.55;;
30647;SDS011;17683;53.360;9.736;2023-01-05T12:03:57;15.43;;;2.17;;
30647;SDS011;17683;53.360;9.736;2023-01-05T12:09:21;16.98;;;2.47;;
30647;SDS011;17683;53.360;9.736;2023-01-05T12:11:51;10.63;;;2.47;;
30647;SDS011;17683;53.360;9.736;2023-01-05T12:17:13;15.52;;;3.67;;
30647;SDS011;17683;53.360;9.736;2023-01-05T12:19:44;17.73;;;2.88;;
30647;SDS011;17683;53.360;9.736;2023-01-05T12:22:27;7.22;;;1.70;;
30647;SDS011;17683;53.360;9.736;2023-01-05T12:33:24;12.93;;;3.10;;
30647;SDS011;17683;53.360;9.736;2023-01-05T12:41:39;13.48;;;2.92;;
30647;SDS011;17683;53.360;9.736;2023-01-05T12:52:52;12.40;;;2.10;;
30647;SDS011;17683;53.360;9.736;2023-01-05T12:55:46;16.23;;;2.63;;
30647;SDS011;17683;53.360;9.736;2023-01-05T12:58:31;20.17;;;2.97;;
30647;SDS011;17683;53.360;9.736;2023-01-05T13:01:22;12.38;;;2.50;;
30647;SDS011;17683;53.360;9.736;2023-01-05T13:06:22;12.15;;;2.80;;
30647;SDS011;17683;53.360;9.736;2023-01-05T13:08:55;13.00;;;2.25;;
30647;SDS011;17683;53.360;9.736;2023-01-05T13:14:02;9.27;;;2.40;;
30647;SDS011;17683;53.360;9.736;2023-01-05T13:16:36;12.90;;;2.88;;
30647;SDS011;17683;53.360;9.736;2023-01-05T13:19:35;17.27;;;2.85;;
30647;SDS011;17683;53.360;9.736;2023-01-05T13:22:13;13.18;;;2.40;;
30647;SDS011;17683;53.360;9.736;2023-01-05T13:27:43;10.77;;;2.25;;
30647;SDS011;17683;53.360;9.736;2023-01-05T13:30:20;15.43;;;3.03;;
30647;SDS011;17683;53.360;9.736;2023-01-05T13:46:48;17.17;;;3.60;;
30647;SDS011;17683;53.360;9.736;2023-01-05T13:52:29;13.55;;;2.17;;
30647;SDS011;17683;53.360;9.736;2023-01-05T13:54:56;12.38;;;2.60;;
30647;SDS011;17683;53.360;9.736;2023-01-05T13:57:26;12.45;;;2.15;;
30647;SDS011;17683;53.360;9.736;2023-01-05T13:59:57;18.48;;;2.28;;
30647;SDS011;17683;53.360;9.736;2023-01-05T14:02:33;14.15;;;2.85;;
30647;SDS011;17683;53.360;9.736;2023-01-05T14:05:04;10.65;;;2.20;;
30647;SDS011;17683;53.360;9.736;2023-01-05T14:07:40;13.75;;;1.70;;
30647;SDS011;17683;53.360;9.736;2023-01-05T14:10:17;13.90;;;2.63;;
30647;SDS011;17683;53.360;9.736;2023-01-05T14:12:50;11.30;;;2.25;;
30647;SDS011;17683;53.360;9.736;2023-01-05T14:15:30;11.50;;;2.50;;
30647;SDS011;17683;53.360;9.736;2023-01-05T14:18:02;16.33;;;2.95;;
30647;SDS011;17683;53.360;9.736;2023-01-05T14:25:48;13.68;;;1.95;;
30647;SDS011;17683;53.360;9.736;2023-01-05T14:28:42;15.88;;;2.40;;
30647;SDS011;17683;53.360;9.736;2023-01-05T14:33:51;15.73;;;2.55;;
30647;SDS011;17683;53.360;9.736;2023-01-05T14:36:34;13.10;;;2.38;;
30647;SDS011;17683;53.360;9.736;2023-01-05T14:39:01;15.18;;;2.47;;
30647;SDS011;17683;53.360;9.736;2023-01-05T14:41:31;22.77;;;2.47;;
30647;SDS011;17683;53.360;9.736;2023-01-05T14:43:59;14.52;;;3.10;;
30647;SDS011;17683;53.360;9.736;2023-01-05T14:46:27;9.88;;;2.55;;
30647;SDS011;17683;53.360;9.736;2023-01-05T14:49:54;12.52;;;2.45;;
30647;SDS011;17683;53.360;9.736;2023-01-05T14:52:06;13.35;;;2.85;;
30647;SDS011;17683;53.360;9.736;2023-01-05T14:59:50;16.55;;;2.45;;
30647;SDS011;17683;53.360;9.736;2023-01-05T15:02:25;10.02;;;2.30;;
30647;SDS011;17683;53.360;9.736;2023-01-05T15:04:57;16.48;;;2.60;;
30647;SDS011;17683;53.360;9.736;2023-01-05T15:15:47;11.85;;;2.63;;
30647;SDS011;17683;53.360;9.736;2023-01-05T15:24:17;20.60;;;3.47;;
30647;SDS011;17683;53.360;9.736;2023-01-05T15:29:39;9.93;;;2.50;;
30647;SDS011;17683;53.360;9.736;2023-01-05T15:32:20;6.95;;;3.00;;
30647;SDS011;17683;53.360;9.736;2023-01-05T15:35:03;10.88;;;2.60;;
30647;SDS011;17683;53.360;9.736;2023-01-05T15:37:41;12.98;;;2.60;;
30647;SDS011;17683;53.360;9.736;2023-01-05T15:40:25;9.77;;;2.83;;
30647;SDS011;17683;53.360;9.736;2023-01-05T15:42:57;13.40;;;3.08;;
30647;SDS011;17683;53.360;9.736;2023-01-05T15:45:27;10.25;;;2.75;;
30647;SDS011;17683;53.360;9.736;2023-01-05T15:48:06;17.95;;;3.38;;
30647;SDS011;17683;53.360;9.736;2023-01-05T15:50:47;21.00;;;2.85;;
30647;SDS011;17683;53.360;9.736;2023-01-05T15:53:22;16.95;;;3.05;;
30647;SDS011;17683;53.360;9.736;2023-01-05T15:55:49;15.15;;;3.08;;
30647;SDS011;17683;53.360;9.736;2023-01-05T15:58:16;8.88;;;2.72;;
30647;SDS011;17683;53.360;9.736;2023-01-05T16:00:46;16.13;;;3.30;;
30647;SDS011;17683;53.360;9.736;2023-01-05T16:03:29;9.65;;;2.25;;
30647;SDS011;17683;53.360;9.736;2023-01-05T16:06:16;9.82;;;2.72;;
30647;SDS011;17683;53.360;9.736;2023-01-05T16:08:48;16.98;;;2.88;;
30647;SDS011;17683;53.360;9.736;2023-01-05T16:11:35;9.15;;;2.90;;
30647;SDS011;17683;53.360;9.736;2023-01-05T16:14:07;13.38;;;2.35;;
30647;SDS011;17683;53.360;9.736;2023-01-05T16:16:41;15.20;;;2.23;;
30647;SDS011;17683;53.360;9.736;2023-01-05T16:19:13;10.75;;;2.22;;
30647;SDS011;17683;53.360;9.736;2023-01-05T16:22:01;19.02;;;2.97;;
30647;SDS011;17683;53.360;9.736;2023-01-05T16:24:36;13.95;;;2.67;;
30647;SDS011;17683;53.360;9.736;2023-01-05T16:27:30;8.70;;;2.63;;
30647;SDS011;17683;53.360;9.736;2023-01-05T16:30:12;12.63;;;2.05;;
30647;SDS011;17683;53.360;9.736;2023-01-05T16:32:54;8.82;;;1.88;;
30647;SDS011;17683;53.360;9.736;2023-01-05T16:35:51;5.30;;;1.67;;
30647;SDS011;17683;53.360;9.736;2023-01-05T16:38:30;11.00;;;2.05;;
30647;SDS011;17683;53.360;9.736;2023-01-05T16:43:33;9.13;;;1.67;;
30647;SDS011;17683;53.360;9.736;2023-01-05T16:51:07;9.13;;;1.90;;
30647;SDS011;17683;53.360;9.736;2023-01-05T16:53:44;10.77;;;1.80;;
30647;SDS011;17683;53.360;9.736;2023-01-05T16:56:20;9.40;;;1.92;;
30647;SDS011;17683;53.360;9.736;2023-01-05T17:01:58;9.73;;;2.40;;
30647;SDS011;17683;53.360;9.736;2023-01-05T17:04:24;6.03;;;1.38;;
30647;SDS011;17683;53.360;9.736;2023-01-05T17:06:50;8.00;;;1.67;;
30647;SDS011;17683;53.360;9.736;2023-01-05T17:09:22;8.00;;;1.70;;
30647;SDS011;17683;53.360;9.736;2023-01-05T17:11:51;8.00;;;1.45;;
30647;SDS011;17683;53.360;9.736;2023-01-05T17:14:17;7.72;;;2.40;;
30647;SDS011;17683;53.360;9.736;2023-01-05T17:16:44;12.60;;;1.75;;
30647;SDS011;17683;53.360;9.736;2023-01-05T17:19:11;10.05;;;1.60;;
30647;SDS011;17683;53.360;9.736;2023-01-05T17:21:39;12.10;;;1.77;;
30647;SDS011;17683;53.360;9.736;2023-01-05T17:24:25;6.05;;;1.35;;
30647;SDS011;17683;53.360;9.736;2023-01-05T17:26:52;5.65;;;1.52;;
30647;SDS011;17683;53.360;9.736;2023-01-05T17:29:20;8.95;;;1.58;;
30647;SDS011;17683;53.360;9.736;2023-01-05T17:31:48;10.45;;;1.52;;
30647;SDS011;17683;53.360;9.736;2023-01-05T17:34:14;9.43;;;1.55;;
30647;SDS011;17683;53.360;9.736;2023-01-05T17:36:41;9.70;;;1.77;;
30647;SDS011;17683;53.360;9.736;2023-01-05T17:39:08;7.15;;;1.45;;